sensor_id;sensor_type;location;lat;lon;timestamp;pressure;altitude;pressure_sealevel;temperature;humidity
65151;BME280;51918;51.856;0.150;2023-05-07T00:03:45;100507.97;;;14.62;100.00
65151;BME280;51918;51.856;0.150;2023-05-07T00:08:45;100501.97;;;14.55;100.00
65151;BME280;51918;51.856;0.150;2023-05-07T00:13:47;100501.16;;;14.54;100.00
65151;BME280;51918;51.856;0.150;2023-05-07T00:18:49;100495.16;;;14.54;100.00
65151;BME280;51918;51.856;0.150;2023-05-07T00:23:52;100504.72;;;14.53;100.00
65151;BME280;51918;51.856;0.150;2023-05-07T00:28:52;100495.94;;;14.48;100.00
65151;BME280;51918;51.856;0.150;2023-05-07T00:33:54;100494.56;;;14.52;100.00
65151;BME280;51918;51.856;0.150;2023-05-07T00:38:56;100500.34;;;14.54;100.00
65151;BME280;51918;51.856;0.150;2023-05-07T00:43:59;100504.88;;;14.45;100.00
65151;BME280;51918;51.856;0.150;2023-05-07T00:49:03;100501.75;;;14.50;100.00
65151;BME280;51918;51.856;0.150;2023-05-07T00:54:04;100505.69;;;14.46;100.00
65151;BME280;51918;51.856;0.150;2023-05-07T00:59:05;100498.72;;;14.46;100.00
65151;BME280;51918;51.856;0.150;2023-05-07T01:04:07;100500.19;;;14.34;100.00
65151;BME280;51918;51.856;0.150;2023-05-07T01:09:07;100498.22;;;14.36;100.00
65151;BME280;51918;51.856;0.150;2023-05-07T01:14:08;100500.38;;;14.32;100.00
65151;BME280;51918;51.856;0.150;2023-05-07T01:19:11;100504.09;;;14.23;100.00
65151;BME280;51918;51.856;0.150;2023-05-07T01:24:14;100498.06;;;14.16;100.00
65151;BME280;51918;51.856;0.150;2023-05-07T01:29:15;100499.97;;;14.07;100.00
65151;BME280;51918;51.856;0.150;2023-05-07T01:34:17;100501.88;;;13.99;100.00
65151;BME280;51918;51.856;0.150;2023-05-07T01:39:22;100504.34;;;13.85;100.00
65151;BME280;51918;51.856;0.150;2023-05-07T01:44:30;100512.22;;;13.77;100.00
65151;BME280;51918;51.856;0.150;2023-05-07T01:49:32;100517.13;;;13.72;100.00
65151;BME280;51918;51.856;0.150;2023-05-07T01:54:37;100513.88;;;13.70;100.00
65151;BME280;51918;51.856;0.150;2023-05-07T01:59:38;100512.03;;;13.64;100.00
65151;BME280;51918;51.856;0.150;2023-05-07T02:04:40;100517.00;;;13.65;100.00
65151;BME280;51918;51.856;0.150;2023-05-07T02:09:42;100524.59;;;13.67;100.00
65151;BME280;51918;51.856;0.150;2023-05-07T02:14:43;100518.09;;;13.71;100.00
65151;BME280;51918;51.856;0.150;2023-05-07T02:19:43;100519.97;;;13.77;100.00
65151;BME280;51918;51.856;0.150;2023-05-07T02:24:46;100516.84;;;13.82;100.00
65151;BME280;51918;51.856;0.150;2023-05-07T02:30:22;100518.56;;;13.74;100.00
65151;BME280;51918;51.856;0.150;2023-05-07T02:35:24;100528.16;;;13.66;100.00
65151;BME280;51918;51.856;0.150;2023-05-07T02:40:26;100538.69;;;13.64;100.00
65151;BME280;51918;51.856;0.150;2023-05-07T02:45:26;100526.38;;;13.66;100.00
65151;BME280;51918;51.856;0.150;2023-05-07T02:50:27;100520.59;;;13.64;100.00
65151;BME280;51918;51.856;0.150;2023-05-07T02:55:29;100525.56;;;13.66;100.00
65151;BME280;51918;51.856;0.150;2023-05-07T03:00:29;100526.19;;;13.68;100.00
65151;BME280;51918;51.856;0.150;2023-05-07T03:05:30;100527.44;;;13.72;100.00
65151;BME280;51918;51.856;0.150;2023-05-07T03:10:32;100536.03;;;13.72;100.00
65151;BME280;51918;51.856;0.150;2023-05-07T03:15:32;100531.47;;;13.74;100.00
65151;BME280;51918;51.856;0.150;2023-05-07T03:20:33;100533.25;;;13.74;100.00
65151;BME280;51918;51.856;0.150;2023-05-07T03:25:35;100539.03;;;13.76;100.00
65151;BME280;51918;51.856;0.150;2023-05-07T03:30:37;100540.28;;;13.80;100.00
65151;BME280;51918;51.856;0.150;2023-05-07T03:35:38;100547.06;;;13.81;100.00
65151;BME280;51918;51.856;0.150;2023-05-07T03:40:40;100549.44;;;13.83;100.00
65151;BME280;51918;51.856;0.150;2023-05-07T03:45:40;100552.16;;;13.74;100.00
65151;BME280;51918;51.856;0.150;2023-05-07T03:50:41;100551.88;;;13.69;100.00
65151;BME280;51918;51.856;0.150;2023-05-07T03:55:43;100559.81;;;13.53;100.00
65151;BME280;51918;51.856;0.150;2023-05-07T04:00:44;100556.25;;;13.54;100.00
65151;BME280;51918;51.856;0.150;2023-05-07T04:05:44;100572.56;;;13.54;100.00
65151;BME280;51918;51.856;0.150;2023-05-07T04:10:46;100574.59;;;13.59;100.00
65151;BME280;51918;51.856;0.150;2023-05-07T04:15:48;100568.81;;;13.57;100.00
65151;BME280;51918;51.856;0.150;2023-05-07T04:20:49;100569.44;;;13.59;100.00
65151;BME280;51918;51.856;0.150;2023-05-07T04:25:53;100580.66;;;13.66;100.00
65151;BME280;51918;51.856;0.150;2023-05-07T04:30:53;100584.31;;;13.72;100.00
65151;BME280;51918;51.856;0.150;2023-05-07T04:35:54;100589.16;;;13.75;100.00
65151;BME280;51918;51.856;0.150;2023-05-07T04:40:56;100593.59;;;13.81;100.00
65151;BME280;51918;51.856;0.150;2023-05-07T04:45:56;100598.03;;;13.87;100.00
65151;BME280;51918;51.856;0.150;2023-05-07T04:50:57;100586.88;;;13.87;100.00
65151;BME280;51918;51.856;0.150;2023-05-07T04:55:59;100586.56;;;13.75;100.00
65151;BME280;51918;51.856;0.150;2023-05-07T05:01:00;100589.78;;;13.77;100.00
65151;BME280;51918;51.856;0.150;2023-05-07T05:06:00;100587.53;;;13.74;100.00
65151;BME280;51918;51.856;0.150;2023-05-07T05:11:02;100601.00;;;13.84;100.00
65151;BME280;51918;51.856;0.150;2023-05-07T05:16:03;100601.69;;;13.93;100.00
65151;BME280;51918;51.856;0.150;2023-05-07T05:21:04;100608.03;;;13.90;100.00
65151;BME280;51918;51.856;0.150;2023-05-07T05:26:06;100623.00;;;13.95;100.00
65151;BME280;51918;51.856;0.150;2023-05-07T05:31:07;100625.59;;;13.95;100.00
65151;BME280;51918;51.856;0.150;2023-05-07T05:36:09;100626.03;;;13.99;100.00
65151;BME280;51918;51.856;0.150;2023-05-07T05:41:12;100622.91;;;14.03;100.00
65151;BME280;51918;51.856;0.150;2023-05-07T05:46:15;100618.63;;;13.95;100.00
65151;BME280;51918;51.856;0.150;2023-05-07T05:51:15;100619.88;;;14.00;100.00
65151;BME280;51918;51.856;0.150;2023-05-07T05:56:17;100625.66;;;14.02;100.00
65151;BME280;51918;51.856;0.150;2023-05-07T06:01:18;100629.63;;;14.19;100.00
65151;BME280;51918;51.856;0.150;2023-05-07T06:06:22;100642.88;;;14.46;100.00
65151;BME280;51918;51.856;0.150;2023-05-07T06:11:24;100640.63;;;14.64;100.00
65151;BME280;51918;51.856;0.150;2023-05-07T06:16:25;100652.09;;;14.76;100.00
65151;BME280;51918;51.856;0.150;2023-05-07T06:21:38;100644.28;;;14.70;100.00
65151;BME280;51918;51.856;0.150;2023-05-07T06:26:41;100652.00;;;14.85;100.00
65151;BME280;51918;51.856;0.150;2023-05-07T06:31:41;100656.38;;;15.06;100.00
65151;BME280;51918;51.856;0.150;2023-05-07T06:36:42;100659.63;;;15.14;100.00
65151;BME280;51918;51.856;0.150;2023-05-07T06:41:44;100662.56;;;15.39;100.00
65151;BME280;51918;51.856;0.150;2023-05-07T06:46:45;100671.63;;;15.50;100.00
65151;BME280;51918;51.856;0.150;2023-05-07T06:51:46;100670.25;;;15.54;100.00
65151;BME280;51918;51.856;0.150;2023-05-07T06:56:48;100667.88;;;15.88;100.00
65151;BME280;51918;51.856;0.150;2023-05-07T07:01:49;100676.34;;;16.16;99.99
65151;BME280;51918;51.856;0.150;2023-05-07T07:06:49;100688.63;;;16.49;97.86
65151;BME280;51918;51.856;0.150;2023-05-07T07:11:53;100681.25;;;16.66;96.63
65151;BME280;51918;51.856;0.150;2023-05-07T07:16:54;100681.09;;;16.68;94.88
65151;BME280;51918;51.856;0.150;2023-05-07T07:21:54;100678.88;;;16.71;93.89
65151;BME280;51918;51.856;0.150;2023-05-07T07:26:56;100690.47;;;16.69;92.18
65151;BME280;51918;51.856;0.150;2023-05-07T07:31:57;100690.06;;;16.65;92.25
65151;BME280;51918;51.856;0.150;2023-05-07T07:36:57;100692.06;;;16.56;92.94
65151;BME280;51918;51.856;0.150;2023-05-07T07:42:00;100689.09;;;16.86;96.53
65151;BME280;51918;51.856;0.150;2023-05-07T07:47:00;100688.50;;;17.31;93.88
65151;BME280;51918;51.856;0.150;2023-05-07T07:52:01;100695.66;;;17.62;89.79
65151;BME280;51918;51.856;0.150;2023-05-07T07:57:05;100700.41;;;17.85;86.89
65151;BME280;51918;51.856;0.150;2023-05-07T08:02:06;100699.19;;;18.01;86.62
65151;BME280;51918;51.856;0.150;2023-05-07T08:07:09;100703.88;;;18.24;86.97
65151;BME280;51918;51.856;0.150;2023-05-07T08:12:11;100703.75;;;18.51;86.41
65151;BME280;51918;51.856;0.150;2023-05-07T08:17:12;100701.22;;;18.76;86.50
65151;BME280;51918;51.856;0.150;2023-05-07T08:22:12;100696.06;;;19.19;83.39
65151;BME280;51918;51.856;0.150;2023-05-07T08:27:17;100707.34;;;19.57;81.85
65151;BME280;51918;51.856;0.150;2023-05-07T08:32:17;100714.19;;;19.76;79.07
65151;BME280;51918;51.856;0.150;2023-05-07T08:37:18;100717.59;;;19.77;76.42
65151;BME280;51918;51.856;0.150;2023-05-07T08:42:23;100720.19;;;19.77;76.14
65151;BME280;51918;51.856;0.150;2023-05-07T08:47:29;100725.78;;;19.62;75.17
65151;BME280;51918;51.856;0.150;2023-05-07T08:52:32;100737.44;;;19.59;76.22
65151;BME280;51918;51.856;0.150;2023-05-07T08:57:34;100736.28;;;19.55;77.57
65151;BME280;51918;51.856;0.150;2023-05-07T09:02:40;100733.09;;;19.53;75.41
65151;BME280;51918;51.856;0.150;2023-05-07T09:07:43;100748.31;;;19.56;75.74
65151;BME280;51918;51.856;0.150;2023-05-07T09:12:46;100751.59;;;19.52;74.75
65151;BME280;51918;51.856;0.150;2023-05-07T09:17:47;100749.44;;;19.42;73.90
65151;BME280;51918;51.856;0.150;2023-05-07T09:22:48;100753.22;;;19.46;74.24
65151;BME280;51918;51.856;0.150;2023-05-07T09:27:51;100763.66;;;19.46;nan
65151;BME280;51918;51.856;0.150;2023-05-07T09:32:51;100762.13;;;19.38;75.01
65151;BME280;51918;51.856;0.150;2023-05-07T09:37:52;100762.44;;;19.23;77.09
65151;BME280;51918;51.856;0.150;2023-05-07T09:42:54;100776.03;;;19.00;78.94
65151;BME280;51918;51.856;0.150;2023-05-07T09:47:58;100773.28;;;19.20;79.09
65151;BME280;51918;51.856;0.150;2023-05-07T09:52:58;100787.88;;;19.28;80.21
65151;BME280;51918;51.856;0.150;2023-05-07T09:58:01;100790.06;;;19.56;80.72
65151;BME280;51918;51.856;0.150;2023-05-07T10:03:03;100793.59;;;19.87;76.76
65151;BME280;51918;51.856;0.150;2023-05-07T10:08:04;100797.66;;;20.20;75.57
65151;BME280;51918;51.856;0.150;2023-05-07T10:13:07;100792.25;;;20.40;75.80
65151;BME280;51918;51.856;0.150;2023-05-07T10:18:08;100803.28;;;20.72;74.76
65151;BME280;51918;51.856;0.150;2023-05-07T10:23:13;100803.84;;;20.74;70.48
65151;BME280;51918;51.856;0.150;2023-05-07T10:28:18;100812.50;;;21.05;71.31
65151;BME280;51918;51.856;0.150;2023-05-07T10:33:24;100816.06;;;21.22;69.65
65151;BME280;51918;51.856;0.150;2023-05-07T10:38:27;100819.84;;;21.50;69.23
65151;BME280;51918;51.856;0.150;2023-05-07T10:43:39;100823.16;;;21.69;66.85
65151;BME280;51918;51.856;0.150;2023-05-07T10:49:10;100827.63;;;21.92;66.78
65151;BME280;51918;51.856;0.150;2023-05-07T10:54:19;100839.69;;;22.05;63.84
65151;BME280;51918;51.856;0.150;2023-05-07T10:59:42;100835.41;;;22.27;61.87
65151;BME280;51918;51.856;0.150;2023-05-07T11:04:42;100832.81;;;22.68;62.65
65151;BME280;51918;51.856;0.150;2023-05-07T11:15:13;100838.19;;;23.07;57.35
65151;BME280;51918;51.856;0.150;2023-05-07T11:20:14;100841.72;;;23.29;57.34
65151;BME280;51918;51.856;0.150;2023-05-07T11:25:17;100837.63;;;23.72;55.92
65151;BME280;51918;51.856;0.150;2023-05-07T11:30:20;100832.84;;;24.03;52.51
65151;BME280;51918;51.856;0.150;2023-05-07T11:35:22;100840.84;;;24.58;54.62
65151;BME280;51918;51.856;0.150;2023-05-07T11:40:23;100857.06;;;25.31;52.28
65151;BME280;51918;51.856;0.150;2023-05-07T11:45:25;100859.41;;;26.12;51.22
65151;BME280;51918;51.856;0.150;2023-05-07T11:50:26;100862.22;;;26.58;46.97
65151;BME280;51918;51.856;0.150;2023-05-07T11:55:27;100860.41;;;26.79;46.29
65151;BME280;51918;51.856;0.150;2023-05-07T12:00:29;100859.63;;;26.84;46.52
65151;BME280;51918;51.856;0.150;2023-05-07T12:05:30;100853.81;;;26.77;45.63
65151;BME280;51918;51.856;0.150;2023-05-07T12:10:31;100854.13;;;27.06;46.70
65151;BME280;51918;51.856;0.150;2023-05-07T12:15:34;100866.00;;;27.29;44.82
65151;BME280;51918;51.856;0.150;2023-05-07T12:20:36;100860.72;;;27.39;43.86
65151;BME280;51918;51.856;0.150;2023-05-07T12:25:37;100859.16;;;27.18;43.66
65151;BME280;51918;51.856;0.150;2023-05-07T12:30:40;100851.22;;;27.33;43.40
65151;BME280;51918;51.856;0.150;2023-05-07T12:35:43;100856.22;;;27.50;43.77
65151;BME280;51918;51.856;0.150;2023-05-07T12:40:45;100848.97;;;27.97;44.51
65151;BME280;51918;51.856;0.150;2023-05-07T12:45:51;100847.13;;;28.52;42.44
65151;BME280;51918;51.856;0.150;2023-05-07T12:50:53;100848.34;;;29.10;41.55
65151;BME280;51918;51.856;0.150;2023-05-07T12:55:55;100858.63;;;29.99;41.25
65151;BME280;51918;51.856;0.150;2023-05-07T13:00:59;100863.16;;;30.36;38.94
65151;BME280;51918;51.856;0.150;2023-05-07T13:06:01;100865.97;;;30.45;36.94
65151;BME280;51918;51.856;0.150;2023-05-07T13:11:02;100862.81;;;30.43;36.36
65151;BME280;51918;51.856;0.150;2023-05-07T13:16:06;100863.88;;;30.23;36.13
65151;BME280;51918;51.856;0.150;2023-05-07T13:21:07;100853.84;;;30.58;36.03
65151;BME280;51918;51.856;0.150;2023-05-07T13:26:09;100852.41;;;31.17;36.69
65151;BME280;51918;51.856;0.150;2023-05-07T13:31:11;100860.00;;;31.38;36.15
65151;BME280;51918;51.856;0.150;2023-05-07T13:36:12;100857.28;;;31.84;34.27
65151;BME280;51918;51.856;0.150;2023-05-07T13:41:14;100857.84;;;32.23;32.71
65151;BME280;51918;51.856;0.150;2023-05-07T13:46:16;100855.28;;;32.54;33.54
65151;BME280;51918;51.856;0.150;2023-05-07T13:51:16;100865.28;;;32.49;33.03
65151;BME280;51918;51.856;0.150;2023-05-07T13:56:17;100866.25;;;32.16;32.73
65151;BME280;51918;51.856;0.150;2023-05-07T14:01:19;100875.16;;;31.23;31.92
65151;BME280;51918;51.856;0.150;2023-05-07T14:06:19;100877.97;;;30.61;33.22
65151;BME280;51918;51.856;0.150;2023-05-07T14:11:20;100880.88;;;30.41;34.48
65151;BME280;51918;51.856;0.150;2023-05-07T14:16:22;100888.97;;;30.31;34.24
65151;BME280;51918;51.856;0.150;2023-05-07T14:21:23;100880.97;;;30.36;34.75
65151;BME280;51918;51.856;0.150;2023-05-07T14:26:23;100882.53;;;30.37;34.25
65151;BME280;51918;51.856;0.150;2023-05-07T14:31:25;100873.84;;;30.50;32.24
65151;BME280;51918;51.856;0.150;2023-05-07T14:36:26;100872.16;;;30.59;32.43
65151;BME280;51918;51.856;0.150;2023-05-07T14:41:27;100876.22;;;30.52;32.70
65151;BME280;51918;51.856;0.150;2023-05-07T14:46:29;100885.16;;;29.99;33.00
65151;BME280;51918;51.856;0.150;2023-05-07T14:51:30;100879.13;;;29.64;32.21
65151;BME280;51918;51.856;0.150;2023-05-07T14:56:30;100875.06;;;29.48;33.98
65151;BME280;51918;51.856;0.150;2023-05-07T15:01:34;100879.22;;;29.25;33.55
65151;BME280;51918;51.856;0.150;2023-05-07T15:06:34;100884.53;;;28.40;33.52
65151;BME280;51918;51.856;0.150;2023-05-07T15:11:36;100878.63;;;27.89;34.76
65151;BME280;51918;51.856;0.150;2023-05-07T15:16:41;100888.44;;;27.57;35.76
65151;BME280;51918;51.856;0.150;2023-05-07T15:21:41;100891.38;;;27.30;36.16
65151;BME280;51918;51.856;0.150;2023-05-07T15:26:42;100886.59;;;27.07;36.93
65151;BME280;51918;51.856;0.150;2023-05-07T15:31:44;100893.94;;;26.84;36.89
65151;BME280;51918;51.856;0.150;2023-05-07T15:36:45;100878.59;;;26.55;36.80
65151;BME280;51918;51.856;0.150;2023-05-07T15:41:45;100867.63;;;26.21;37.18
65151;BME280;51918;51.856;0.150;2023-05-07T15:46:47;100879.84;;;25.90;37.42
65151;BME280;51918;51.856;0.150;2023-05-07T15:51:48;100877.25;;;25.57;37.82
65151;BME280;51918;51.856;0.150;2023-05-07T15:56:48;100865.75;;;25.31;37.52
65151;BME280;51918;51.856;0.150;2023-05-07T16:01:50;100869.84;;;25.17;38.56
65151;BME280;51918;51.856;0.150;2023-05-07T16:06:51;100872.72;;;24.88;38.48
65151;BME280;51918;51.856;0.150;2023-05-07T16:11:52;100874.19;;;24.74;38.49
65151;BME280;51918;51.856;0.150;2023-05-07T16:16:55;100879.00;;;24.38;38.00
65151;BME280;51918;51.856;0.150;2023-05-07T16:21:56;100874.41;;;24.28;38.62
65151;BME280;51918;51.856;0.150;2023-05-07T16:26:56;100874.50;;;23.78;39.79
65151;BME280;51918;51.856;0.150;2023-05-07T16:31:58;100888.59;;;23.54;40.43
65151;BME280;51918;51.856;0.150;2023-05-07T16:36:59;100892.13;;;23.43;40.43
65151;BME280;51918;51.856;0.150;2023-05-07T16:41:59;100888.53;;;23.32;41.32
65151;BME280;51918;51.856;0.150;2023-05-07T16:47:01;100886.56;;;23.11;41.07
65151;BME280;51918;51.856;0.150;2023-05-07T16:52:02;100899.16;;;22.97;41.21
65151;BME280;51918;51.856;0.150;2023-05-07T16:57:03;100899.38;;;22.79;41.80
65151;BME280;51918;51.856;0.150;2023-05-07T17:02:05;100900.00;;;22.86;41.49
65151;BME280;51918;51.856;0.150;2023-05-07T17:07:06;100907.47;;;22.77;41.37
65151;BME280;51918;51.856;0.150;2023-05-07T17:12:06;100893.78;;;22.75;41.21
65151;BME280;51918;51.856;0.150;2023-05-07T17:17:11;100902.00;;;22.67;41.42
65151;BME280;51918;51.856;0.150;2023-05-07T17:22:12;100903.19;;;22.59;41.13
65151;BME280;51918;51.856;0.150;2023-05-07T17:27:12;100909.13;;;22.43;40.29
65151;BME280;51918;51.856;0.150;2023-05-07T17:32:14;100903.53;;;22.39;40.99
65151;BME280;51918;51.856;0.150;2023-05-07T17:37:15;100905.13;;;22.28;41.16
65151;BME280;51918;51.856;0.150;2023-05-07T17:42:15;100911.44;;;22.16;41.20
65151;BME280;51918;51.856;0.150;2023-05-07T17:47:17;100912.34;;;21.98;41.02
65151;BME280;51918;51.856;0.150;2023-05-07T17:52:18;100911.22;;;21.82;41.24
65151;BME280;51918;51.856;0.150;2023-05-07T17:57:20;100912.19;;;21.69;42.26
65151;BME280;51918;51.856;0.150;2023-05-07T18:02:22;100925.13;;;21.52;42.40
65151;BME280;51918;51.856;0.150;2023-05-07T18:07:23;100921.00;;;21.44;43.20
65151;BME280;51918;51.856;0.150;2023-05-07T18:12:23;100929.38;;;21.23;43.86
65151;BME280;51918;51.856;0.150;2023-05-07T18:17:25;100931.66;;;21.19;43.11
65151;BME280;51918;51.856;0.150;2023-05-07T18:22:26;100929.63;;;21.03;43.83
65151;BME280;51918;51.856;0.150;2023-05-07T18:27:26;100927.75;;;20.73;44.62
65151;BME280;51918;51.856;0.150;2023-05-07T18:32:28;100934.81;;;20.73;45.52
65151;BME280;51918;51.856;0.150;2023-05-07T18:37:29;100939.81;;;20.56;46.13
65151;BME280;51918;51.856;0.150;2023-05-07T18:42:30;100950.03;;;20.39;46.16
65151;BME280;51918;51.856;0.150;2023-05-07T18:47:32;100959.63;;;20.20;46.84
65151;BME280;51918;51.856;0.150;2023-05-07T18:52:32;100970.25;;;20.00;47.35
65151;BME280;51918;51.856;0.150;2023-05-07T18:57:33;100970.69;;;19.65;48.04
65151;BME280;51918;51.856;0.150;2023-05-07T19:02:35;100972.31;;;19.59;49.72
65151;BME280;51918;51.856;0.150;2023-05-07T19:07:35;100982.06;;;19.39;50.50
65151;BME280;51918;51.856;0.150;2023-05-07T19:12:36;100975.31;;;19.18;51.31
65151;BME280;51918;51.856;0.150;2023-05-07T19:17:38;100970.19;;;18.98;51.47
65151;BME280;51918;51.856;0.150;2023-05-07T19:22:38;100974.66;;;18.77;52.90
65151;BME280;51918;51.856;0.150;2023-05-07T19:27:39;100984.31;;;18.57;53.76
65151;BME280;51918;51.856;0.150;2023-05-07T19:32:41;100992.13;;;18.37;54.19
65151;BME280;51918;51.856;0.150;2023-05-07T19:37:42;100991.53;;;18.15;54.82
65151;BME280;51918;51.856;0.150;2023-05-07T19:42:42;101008.91;;;17.81;55.01
65151;BME280;51918;51.856;0.150;2023-05-07T19:47:46;101009.91;;;17.73;55.39
65151;BME280;51918;51.856;0.150;2023-05-07T19:52:47;101016.66;;;17.61;56.46
65151;BME280;51918;51.856;0.150;2023-05-07T19:57:47;101021.63;;;17.49;56.16
65151;BME280;51918;51.856;0.150;2023-05-07T20:02:49;101025.78;;;17.37;55.97
65151;BME280;51918;51.856;0.150;2023-05-07T20:07:50;101025.94;;;17.29;56.80
65151;BME280;51918;51.856;0.150;2023-05-07T20:12:50;101031.88;;;17.16;57.73
65151;BME280;51918;51.856;0.150;2023-05-07T20:17:53;101045.59;;;17.03;58.18
65151;BME280;51918;51.856;0.150;2023-05-07T20:22:53;101053.50;;;16.88;58.71
65151;BME280;51918;51.856;0.150;2023-05-07T20:27:54;101059.16;;;16.70;59.67
65151;BME280;51918;51.856;0.150;2023-05-07T20:32:56;101057.34;;;16.42;59.52
65151;BME280;51918;51.856;0.150;2023-05-07T20:37:57;101057.09;;;16.37;60.89
65151;BME280;51918;51.856;0.150;2023-05-07T20:42:58;101058.19;;;16.28;62.03
65151;BME280;51918;51.856;0.150;2023-05-07T20:48:00;101064.69;;;16.17;62.87
65151;BME280;51918;51.856;0.150;2023-05-07T20:53:00;101068.78;;;16.05;63.55
65151;BME280;51918;51.856;0.150;2023-05-07T20:58:01;101068.66;;;15.92;64.45
65151;BME280;51918;51.856;0.150;2023-05-07T21:03:03;101073.63;;;15.78;65.16
65151;BME280;51918;51.856;0.150;2023-05-07T21:08:03;101079.47;;;15.66;65.86
65151;BME280;51918;51.856;0.150;2023-05-07T21:13:04;101070.97;;;15.57;66.33
65151;BME280;51918;51.856;0.150;2023-05-07T21:18:06;101079.22;;;15.46;67.14
65151;BME280;51918;51.856;0.150;2023-05-07T21:23:07;101082.28;;;15.34;67.25
65151;BME280;51918;51.856;0.150;2023-05-07T21:28:07;101073.16;;;15.24;67.76
65151;BME280;51918;51.856;0.150;2023-05-07T21:33:09;101074.03;;;15.16;68.74
65151;BME280;51918;51.856;0.150;2023-05-07T21:38:10;101076.91;;;15.06;69.42
65151;BME280;51918;51.856;0.150;2023-05-07T21:43:11;101078.31;;;14.94;70.02
65151;BME280;51918;51.856;0.150;2023-05-07T21:48:14;101089.09;;;14.83;71.26
65151;BME280;51918;51.856;0.150;2023-05-07T21:53:14;101086.91;;;14.71;71.66
65151;BME280;51918;51.856;0.150;2023-05-07T21:58:15;101080.97;;;14.63;72.37
65151;BME280;51918;51.856;0.150;2023-05-07T22:03:17;101086.03;;;14.56;72.80
65151;BME280;51918;51.856;0.150;2023-05-07T22:08:17;101088.72;;;14.48;73.39
65151;BME280;51918;51.856;0.150;2023-05-07T22:13:18;101097.50;;;14.38;73.75
65151;BME280;51918;51.856;0.150;2023-05-07T22:18:20;101102.13;;;14.28;74.32
65151;BME280;51918;51.856;0.150;2023-05-07T22:23:20;101105.41;;;14.14;75.01
65151;BME280;51918;51.856;0.150;2023-05-07T22:28:21;101108.41;;;14.03;75.08
65151;BME280;51918;51.856;0.150;2023-05-07T22:33:23;101116.69;;;13.90;75.54
65151;BME280;51918;51.856;0.150;2023-05-07T22:38:24;101111.56;;;13.82;76.08
65151;BME280;51918;51.856;0.150;2023-05-07T22:43:25;101110.63;;;13.74;76.97
65151;BME280;51918;51.856;0.150;2023-05-07T22:48:28;101114.50;;;13.70;77.06
65151;BME280;51918;51.856;0.150;2023-05-07T22:53:28;101117.56;;;13.66;77.39
65151;BME280;51918;51.856;0.150;2023-05-07T22:58:29;101116.63;;;13.59;78.27
65151;BME280;51918;51.856;0.150;2023-05-07T23:03:31;101117.28;;;13.52;79.02
65151;BME280;51918;51.856;0.150;2023-05-07T23:08:31;101118.13;;;13.45;79.44
65151;BME280;51918;51.856;0.150;2023-05-07T23:13:32;101109.41;;;13.38;79.74
65151;BME280;51918;51.856;0.150;2023-05-07T23:18:34;101118.00;;;13.30;80.05
65151;BME280;51918;51.856;0.150;2023-05-07T23:23:35;101115.91;;;13.25;80.73
65151;BME280;51918;51.856;0.150;2023-05-07T23:28:36;101121.88;;;13.18;81.06
65151;BME280;51918;51.856;0.150;2023-05-07T23:33:38;101119.28;;;13.09;81.61
65151;BME280;51918;51.856;0.150;2023-05-07T23:38:38;101117.56;;;13.02;81.57
65151;BME280;51918;51.856;0.150;2023-05-07T23:43:39;101120.28;;;12.92;81.54
65151;BME280;51918;51.856;0.150;2023-05-07T23:48:41;101126.28;;;12.84;82.65
65151;BME280;51918;51.856;0.150;2023-05-07T23:53:42;101124.34;;;12.78;82.44
65151;BME280;51918;51.856;0.150;2023-05-07T23:58:42;101113.84;;;12.71;82.51
